Time;durP1;ratioP1;P1;durP2;ratioP2;P2;SDS_P1;SDS_P2;PMS_P1;PMS_P2;Temp;Humidity;BMP_temperature;BMP_pressure;BME280_temperature;BME280_humidity;BME280_pressure;Samples;Min_cycle;Max_cycle;Signal;HPM_P1;HPM_P2
2021/06/03 00:02:16;;;;;;;;;;;;;;;22.88;53.84;101611.81;5079591;28;905;-69
2021/06/03 00:04:42;;;;;;;;;;;;;;;22.88;54.09;101618.13;5077541;28;888;-69
2021/06/03 00:07:08;;;;;;;;;;;;;;;22.87;54.59;101615.66;5073377;28;856;-69
2021/06/03 00:09:33;;;;;;;;;;;;;;;22.85;54.38;101612.38;5073236;28;1048;-69
2021/06/03 00:11:59;;;;;;;;;;;;;;;22.86;54.45;101614.03;5081325;28;1760;-68
2021/06/03 00:14:24;;;;;;;;;;;;;;;22.88;54.59;101614.56;5078860;28;889;-71
2021/06/03 00:16:50;;;;;;;;;;;;;;;22.89;54.20;101611.50;5081034;28;1893;-68
2021/06/03 00:19:15;;;;;;;;;;;;;;;22.90;54.52;101610.41;5073078;28;826;-69
2021/06/03 00:21:41;;;;;;;;;;;;;;;23.02;53.95;101618.31;5073252;28;929;-68
2021/06/03 00:24:07;;;;;;;;;;;;;;;22.99;54.14;101610.59;5073240;28;850;-69
2021/06/03 00:26:32;;;;;;;;;;;;;;;22.96;54.54;101613.94;5073194;28;829;-72
2021/06/03 00:28:58;;;;;;;;;;;;;;;22.97;54.94;101612.81;5072008;28;1337;-72
2021/06/03 00:31:23;;;;;;;;;;;;;;;22.98;54.72;101610.88;5072632;28;952;-69
2021/06/03 00:33:48;;;;;;;;;;;;;;;22.99;54.67;101602.34;5073048;28;874;-71
2021/06/03 00:36:14;;;;;;;;;;;;;;;23.54;53.29;101604.81;5071798;28;1933;-71
2021/06/03 00:38:40;;;;;;;;;;;;;;;23.80;52.43;101593.50;5072903;28;915;-70
2021/06/03 00:41:05;;;;;;;;;;;;;;;23.92;51.75;101593.91;5072818;28;904;-70
2021/06/03 00:43:31;;;;;;;;;;;;;;;23.99;51.76;101588.84;5072843;28;836;-71
2021/06/03 00:45:56;;;;;;;;;;;;;;;24.00;52.03;101584.97;5072984;28;1748;-70
2021/06/03 00:48:22;;;;;;;;;;;;;;;24.04;51.81;101590.72;5079365;28;1063;-70
2021/06/03 00:50:49;;;;;;;;;;;;;;;24.03;51.78;101584.41;5087649;28;1059;-71
2021/06/03 00:53:15;;;;;;;;;;;;;;;24.03;51.07;101586.34;5072403;28;1188;-72
2021/06/03 00:55:41;;;;;;;;;;;;;;;24.09;51.29;101579.63;5072455;28;1910;-70
2021/06/03 00:58:07;;;;;;;;;;;;;;;24.12;50.61;101579.84;5072624;28;822;-71
2021/06/03 01:00:32;;;;;;;;;;;;;;;23.88;51.53;101581.84;5072130;28;987;-71
2021/06/03 01:02:58;;;;;;;;;;;;;;;23.56;52.23;101580.59;5072341;28;1417;-70
2021/06/03 01:05:28;;;;;;;;;;;;;;;23.37;52.75;101564.06;5072332;28;874;-71
2021/06/03 01:07:55;;;;;;;;;;;;;;;23.30;53.44;101585.56;5072424;28;860;-72
2021/06/03 01:10:28;;;;;;;;;;;;;;;23.20;53.86;101583.78;5072423;28;858;-71
2021/06/03 01:13:03;;;;;;;;;;;;;;;23.13;54.01;101581.34;5072033;28;957;-71
2021/06/03 01:15:29;;;;;;;;;;;;;;;23.13;54.06;101578.59;5071761;28;1874;-70
2021/06/03 01:17:55;;;;;;;;;;;;;;;23.15;54.30;101569.25;5072150;28;810;-72
2021/06/03 01:20:21;;;;;;;;;;;;;;;23.03;54.53;101575.97;5072076;28;866;-71
2021/06/03 01:22:54;;;;;;;;;;;;;;;23.05;54.33;101570.19;5072263;28;888;-70
2021/06/03 01:25:21;;;;;;;;;;;;;;;23.04;54.46;101568.53;5072317;28;934;-70
2021/06/03 01:27:47;;;;;;;;;;;;;;;23.08;54.41;101572.34;5072015;28;841;-70
2021/06/03 01:30:12;;;;;;;;;;;;;;;23.04;54.71;101565.78;5070731;28;1303;-72
2021/06/03 01:32:40;;;;;;;;;;;;;;;23.01;54.53;101567.16;5071855;28;1109;-72
2021/06/03 01:35:07;;;;;;;;;;;;;;;22.99;54.68;101572.13;5088110;28;1941;-72
2021/06/03 01:37:33;;;;;;;;;;;;;;;23.04;54.32;101568.53;5090756;28;1397;-70
2021/06/03 01:39:58;;;;;;;;;;;;;;;22.99;54.46;101563.88;5071651;28;1041;-71
2021/06/03 01:42:23;;;;;;;;;;;;;;;22.99;54.49;101563.06;5071419;28;881;-71
2021/06/03 01:44:49;;;;;;;;;;;;;;;22.98;54.60;101565.00;5071528;28;876;-70
2021/06/03 01:47:14;;;;;;;;;;;;;;;23.00;54.35;101562.78;5071320;28;908;-70
2021/06/03 01:49:41;;;;;;;;;;;;;;;22.99;54.31;101566.63;5071508;28;867;-70
2021/06/03 01:52:07;;;;;;;;;;;;;;;22.98;54.37;101564.16;5071642;28;1127;-70
2021/06/03 01:54:32;;;;;;;;;;;;;;;22.94;54.74;101562.03;5071318;28;1167;-70
2021/06/03 01:56:59;;;;;;;;;;;;;;;22.94;54.39;101567.53;5071134;28;1938;-70
2021/06/03 01:59:24;;;;;;;;;;;;;;;22.94;54.12;101561.22;5071219;28;905;-70
2021/06/03 02:01:50;;;;;;;;;;;;;;;22.94;53.99;101563.97;5071113;28;909;-70
2021/06/03 02:04:15;;;;;;;;;;;;;;;22.97;54.11;101565.28;5071200;28;889;-70
2021/06/03 02:06:41;;;;;;;;;;;;;;;22.95;54.24;101573.81;5071115;28;883;-70
2021/06/03 02:09:07;;;;;;;;;;;;;;;22.96;54.02;101566.41;5071068;28;842;-73
2021/06/03 02:11:36;;;;;;;;;;;;;;;22.92;54.40;101567.00;5071124;28;811;-72
2021/06/03 02:14:02;;;;;;;;;;;;;;;22.95;54.01;101568.31;5071045;28;967;-72
2021/06/03 02:16:47;;;;;;;;;;;;;;;22.96;53.87;101566.41;5070801;28;1929;-72
2021/06/03 02:19:19;;;;;;;;;;;;;;;22.97;53.69;101563.38;5071270;28;885;-71
2021/06/03 02:21:46;;;;;;;;;;;;;;;22.94;53.99;101573.00;5071028;28;903;-71
2021/06/03 02:24:12;;;;;;;;;;;;;;;22.92;53.85;101564.25;5070887;28;850;-71
2021/06/03 02:26:39;;;;;;;;;;;;;;;22.92;53.95;101564.25;5070507;28;949;-71
2021/06/03 02:29:05;;;;;;;;;;;;;;;22.94;53.66;101563.97;5070810;28;900;-71
2021/06/03 02:31:31;;;;;;;;;;;;;;;22.93;53.94;101567.81;5070841;28;942;-71
2021/06/03 02:33:56;;;;;;;;;;;;;;;22.93;53.95;101563.13;5070768;28;957;-71
2021/06/03 02:36:22;;;;;;;;;;;;;;;22.91;53.79;101556.28;5073181;28;1878;-71
2021/06/03 02:38:47;;;;;;;;;;;;;;;22.91;53.48;101556.28;5083776;28;946;-70
2021/06/03 02:41:13;;;;;;;;;;;;;;;22.89;53.93;101553.81;5081456;28;896;-71
2021/06/03 02:43:42;;;;;;;;;;;;;;;22.91;54.02;101556.28;5070662;28;932;-70
2021/06/03 02:46:07;;;;;;;;;;;;;;;22.93;53.96;101554.88;5070436;28;877;-71
2021/06/03 02:48:32;;;;;;;;;;;;;;;22.87;54.13;101556.03;5070635;28;1082;-70
2021/06/03 02:50:58;;;;;;;;;;;;;;;22.87;54.43;101552.47;5070401;28;1114;-71
2021/06/03 02:53:23;;;;;;;;;;;;;;;22.93;54.15;101548.56;5070439;28;1117;-71
2021/06/03 02:55:48;;;;;;;;;;;;;;;22.92;54.07;101556.00;5073320;28;1955;-70
2021/06/03 02:58:14;;;;;;;;;;;;;;;22.89;54.13;101553.00;5080758;28;866;-71
2021/06/03 03:00:39;;;;;;;;;;;;;;;22.84;54.67;101548.41;5075428;28;885;-71
2021/06/03 03:03:06;;;;;;;;;;;;;;;22.85;54.36;101558.25;5069872;28;1337;-71
2021/06/03 03:05:32;;;;;;;;;;;;;;;22.87;54.55;101553.28;5070610;28;867;-71
2021/06/03 03:07:57;;;;;;;;;;;;;;;22.86;54.47;101551.66;5070247;28;958;-71
2021/06/03 03:10:24;;;;;;;;;;;;;;;22.86;54.58;101556.34;5069853;28;822;-71
2021/06/03 03:12:49;;;;;;;;;;;;;;;22.89;54.68;101558.50;5070159;28;1349;-71
2021/06/03 03:15:16;;;;;;;;;;;;;;;22.88;54.74;101559.63;5070234;28;1854;-71
2021/06/03 03:17:41;;;;;;;;;;;;;;;22.85;54.85;101560.19;5070107;28;901;-71
2021/06/03 03:20:07;;;;;;;;;;;;;;;22.87;55.11;101567.03;5070013;28;1296;-70
2021/06/03 03:22:33;;;;;;;;;;;;;;;22.86;55.38;101572.84;5074649;28;1608;-69
2021/06/03 03:24:58;;;;;;;;;;;;;;;22.88;54.68;101573.38;5070296;28;898;-70
2021/06/03 03:27:23;;;;;;;;;;;;;;;22.86;54.75;101562.66;5075156;28;2235;-69
2021/06/03 03:29:49;;;;;;;;;;;;;;;22.87;54.97;101566.22;5075661;28;2018;-69
2021/06/03 03:32:14;;;;;;;;;;;;;;;22.97;54.85;101570.78;5080335;28;952;-71
2021/06/03 03:34:40;;;;;;;;;;;;;;;22.82;54.09;101580.81;5068838;28;869;-71
2021/06/03 03:37:05;;;;;;;;;;;;;;;22.64;53.49;101574.13;5069070;28;1883;-71
2021/06/03 03:39:30;;;;;;;;;;;;;;;22.50;53.12;101586.88;5068905;28;893;-71
2021/06/03 03:41:56;;;;;;;;;;;;;;;22.47;53.36;101585.50;5069136;28;913;-71
2021/06/03 03:44:21;;;;;;;;;;;;;;;22.47;53.31;101587.44;5069257;28;844;-71
2021/06/03 03:46:47;;;;;;;;;;;;;;;22.45;52.89;101582.22;5069123;28;801;-71
2021/06/03 03:49:12;;;;;;;;;;;;;;;22.46;53.20;101592.09;5069772;28;891;-71
2021/06/03 03:51:37;;;;;;;;;;;;;;;22.53;52.92;101591.78;5069828;28;869;-71
2021/06/03 03:54:03;;;;;;;;;;;;;;;22.58;52.24;101588.16;5069217;28;1363;-71
2021/06/03 03:56:28;;;;;;;;;;;;;;;22.60;52.25;101586.78;5069428;28;1926;-71
2021/06/03 03:58:54;;;;;;;;;;;;;;;22.52;52.37;101590.16;5067889;28;823;-70
2021/06/03 04:01:20;;;;;;;;;;;;;;;22.55;52.53;101592.31;5068256;28;998;-70
2021/06/03 04:03:45;;;;;;;;;;;;;;;22.54;51.91;101591.50;5068278;28;861;-71
2021/06/03 04:06:10;;;;;;;;;;;;;;;22.60;51.98;101591.47;5068139;28;806;-73
2021/06/03 04:08:36;;;;;;;;;;;;;;;22.67;52.12;101591.94;5068230;28;812;-70
2021/06/03 04:11:01;;;;;;;;;;;;;;;22.58;51.75;101588.16;5071906;28;799;-70
2021/06/03 04:13:26;;;;;;;;;;;;;;;22.27;50.91;101602.13;5071938;28;755;-70
2021/06/03 04:15:53;;;;;;;;;;;;;;;22.22;52.31;101596.66;5071607;28;1894;-71
2021/06/03 04:18:19;;;;;;;;;;;;;;;22.28;52.39;101601.03;5070604;28;790;-71
2021/06/03 04:20:44;;;;;;;;;;;;;;;22.34;52.48;101597.97;5073053;28;933;-71
2021/06/03 04:23:10;;;;;;;;;;;;;;;22.39;52.00;101601.78;5070842;28;857;-70
2021/06/03 04:25:35;;;;;;;;;;;;;;;22.44;52.35;101605.31;5071142;28;803;-71
2021/06/03 04:28:00;;;;;;;;;;;;;;;22.40;52.44;101604.25;5071486;28;827;-71
2021/06/03 04:30:26;;;;;;;;;;;;;;;22.52;52.49;101612.13;5071017;28;802;-71
2021/06/03 04:32:52;;;;;;;;;;;;;;;22.48;52.67;101611.84;5071469;28;940;-71
2021/06/03 04:35:18;;;;;;;;;;;;;;;22.38;52.05;101619.34;5071465;28;1866;-71
2021/06/03 04:37:44;;;;;;;;;;;;;;;22.08;49.78;101613.72;5071179;28;1709;-71
2021/06/03 04:40:10;;;;;;;;;;;;;;;22.05;50.54;101619.78;5082509;28;877;-72
2021/06/03 04:42:36;;;;;;;;;;;;;;;21.91;51.33;101621.50;5079911;28;806;-72
2021/06/03 04:45:01;;;;;;;;;;;;;;;21.88;49.62;101622.88;5071511;28;912;-72
2021/06/03 04:47:27;;;;;;;;;;;;;;;21.85;50.51;101631.69;5071372;28;802;-72
2021/06/03 04:49:52;;;;;;;;;;;;;;;21.93;50.27;101628.38;5071724;28;810;-72
2021/06/03 04:52:28;;;;;;;;;;;;;;;21.83;49.66;101628.41;5070605;28;909;-72
2021/06/03 04:54:55;;;;;;;;;;;;;;;21.79;49.81;101626.50;5070860;28;1963;-72
2021/06/03 04:57:20;;;;;;;;;;;;;;;21.77;49.11;101623.22;5071144;28;798;-72
2021/06/03 04:59:46;;;;;;;;;;;;;;;21.83;49.68;101617.44;5070999;28;1652;-72
2021/06/03 05:02:11;;;;;;;;;;;;;;;21.95;49.77;101633.53;5077835;28;1619;-73
2021/06/03 05:04:37;;;;;;;;;;;;;;;22.03;50.15;101627.47;5083361;28;873;-73
2021/06/03 05:07:02;;;;;;;;;;;;;;;22.05;51.01;101629.94;5070532;28;1047;-73
2021/06/03 05:09:27;;;;;;;;;;;;;;;22.09;50.99;101628.25;5070914;28;882;-73
2021/06/03 05:11:53;;;;;;;;;;;;;;;22.12;50.96;101627.72;5071045;28;888;-73
2021/06/03 05:14:18;;;;;;;;;;;;;;;22.13;51.32;101627.44;5069555;28;1361;-73
2021/06/03 05:16:43;;;;;;;;;;;;;;;22.37;50.82;101632.25;5071116;28;1878;-72
2021/06/03 05:19:08;;;;;;;;;;;;;;;22.49;50.98;101638.19;5070793;28;877;-73
2021/06/03 05:21:34;;;;;;;;;;;;;;;22.44;50.53;101642.91;5070388;28;802;-73
2021/06/03 05:23:59;;;;;;;;;;;;;;;22.47;50.95;101642.34;5070617;28;900;-73
2021/06/03 05:26:24;;;;;;;;;;;;;;;22.46;51.15;101643.47;5070755;28;826;-73
2021/06/03 05:28:50;;;;;;;;;;;;;;;22.49;51.39;101646.44;5070043;28;1347;-73
2021/06/03 05:31:15;;;;;;;;;;;;;;;22.48;51.95;101642.06;5071442;28;798;-73
2021/06/03 05:33:40;;;;;;;;;;;;;;;22.40;51.86;101648.16;5070652;28;849;-73
2021/06/03 05:36:06;;;;;;;;;;;;;;;22.36;51.51;101649.03;5070216;28;1969;-73
2021/06/03 05:38:31;;;;;;;;;;;;;;;;;;5070696;28;965;-73
2021/06/03 05:40:56;;;;;;;;;;;;;;;22.34;51.65;101654.78;5070777;28;838;-73
2021/06/03 05:43:21;;;;;;;;;;;;;;;22.33;51.55;101661.38;5070669;28;901;-73
2021/06/03 05:45:47;;;;;;;;;;;;;;;22.39;51.65;101656.66;5070723;28;964;-73
2021/06/03 05:48:12;;;;;;;;;;;;;;;22.33;51.38;101659.47;5070893;28;901;-73
2021/06/03 05:50:37;;;;;;;;;;;;;;;22.24;51.66;101661.16;5071166;28;831;-73
2021/06/03 05:53:03;;;;;;;;;;;;;;;22.23;51.47;101664.13;5069464;28;1392;-73
2021/06/03 05:55:29;;;;;;;;;;;;;;;22.24;51.73;101663.09;5070768;28;1969;-72
2021/06/03 05:57:55;;;;;;;;;;;;;;;22.28;51.50;101675.94;5070940;28;842;-72
2021/06/03 06:00:24;;;;;;;;;;;;;;;22.30;51.49;101670.19;5076640;28;1777;-73
2021/06/03 06:03:02;;;;;;;;;;;;;;;22.37;51.54;101672.59;5080393;28;810;-73
2021/06/03 06:08:13;;;;;;;;;;;;;;;22.37;51.06;101667.91;5050509;28;960;-73
2021/06/03 06:10:39;;;;;;;;;;;;;;;22.25;51.04;101673.75;5050766;28;806;-73
2021/06/03 06:13:05;;;;;;;;;;;;;;;22.31;51.55;101678.09;5050497;28;811;-73
2021/06/03 06:15:31;;;;;;;;;;;;;;;22.34;51.59;101680.31;5050527;28;1870;-73
2021/06/03 06:17:56;;;;;;;;;;;;;;;22.24;51.34;101679.53;5050152;28;870;-73
2021/06/03 06:20:22;;;;;;;;;;;;;;;22.24;51.47;101682.28;5050843;28;849;-73
2021/06/03 06:22:47;;;;;;;;;;;;;;;22.29;51.37;101682.25;5050519;28;819;-73
2021/06/03 06:25:13;;;;;;;;;;;;;;;22.30;53.05;101683.91;5050571;28;853;-72
2021/06/03 06:27:38;;;;;;;;;;;;;;;;;;5051555;28;907;-73
2021/06/03 06:30:05;;;;;;;;;;;;;;;22.37;51.49;101689.88;5051414;28;893;-73
2021/06/03 06:32:31;;;;;;;;;;;;;;;22.22;51.44;101692.69;5069443;28;1977;-73
2021/06/03 06:34:56;;;;;;;;;;;;;;;22.18;51.82;101688.88;5083210;28;1874;-73
2021/06/03 06:37:21;;;;;;;;;;;;;;;22.25;52.12;101694.91;5070854;28;822;-73
2021/06/03 06:39:47;;;;;;;;;;;;;;;22.21;51.72;101694.59;5070113;28;882;-73
2021/06/03 06:42:12;;;;;;;;;;;;;;;22.12;51.85;101697.13;5070084;28;870;-73
2021/06/03 06:44:37;;;;;;;;;;;;;;;22.15;52.64;101692.97;5070040;28;846;-73
2021/06/03 06:47:03;;;;;;;;;;;;;;;22.18;51.81;101697.09;5074897;28;1698;-75
2021/06/03 06:49:28;;;;;;;;;;;;;;;21.85;52.38;101685.72;5083309;28;1101;-74
2021/06/03 06:51:54;;;;;;;;;;;;;;;21.60;52.34;101692.09;5070244;28;968;-75
2021/06/03 06:54:19;;;;;;;;;;;;;;;21.85;53.04;101691.19;5070233;28;1113;-76
2021/06/03 06:56:44;;;;;;;;;;;;;;;22.07;52.46;101688.94;5070947;28;1902;-76
2021/06/03 06:59:10;;;;;;;;;;;;;;;22.14;52.01;101691.34;5081468;28;1523;-76
2021/06/03 07:01:35;;;;;;;;;;;;;;;22.24;52.22;101691.34;5089932;28;817;-76
2021/06/03 07:04:00;;;;;;;;;;;;;;;22.26;51.89;101688.31;5090064;28;793;-74
2021/06/03 07:06:26;;;;;;;;;;;;;;;22.32;52.00;101690.75;5089965;28;886;-73
2021/06/03 07:08:51;;;;;;;;;;;;;;;22.21;51.62;101691.03;5091827;28;826;-73
2021/06/03 07:11:17;;;;;;;;;;;;;;;22.31;52.10;101686.34;5091800;28;877;-73
2021/06/03 07:13:42;;;;;;;;;;;;;;;22.25;51.44;101689.41;5092045;28;834;-73
2021/06/03 07:16:07;;;;;;;;;;;;;;;22.09;51.66;101692.22;5089997;28;1866;-74
2021/06/03 07:18:33;;;;;;;;;;;;;;;22.07;52.11;101691.66;5089783;28;820;-73
2021/06/03 07:20:59;;;;;;;;;;;;;;;21.99;51.74;101694.97;5084617;28;1498;-76
2021/06/03 07:23:24;;;;;;;;;;;;;;;22.07;51.63;101694.41;5078695;28;1427;-76
2021/06/03 07:25:50;;;;;;;;;;;;;;;22.05;51.13;101701.25;5087792;28;841;-73
2021/06/03 07:28:15;;;;;;;;;;;;;;;22.03;51.33;101692.50;5088183;28;1291;-73
2021/06/03 07:30:40;;;;;;;;;;;;;;;22.03;51.33;101697.97;5089704;28;874;-73
2021/06/03 07:33:06;;;;;;;;;;;;;;;22.01;50.72;101701.00;5085479;28;1742;-73
2021/06/03 07:35:34;;;;;;;;;;;;;;;22.08;50.64;101689.75;5076890;28;1921;-73
2021/06/03 07:37:59;;;;;;;;;;;;;;;22.10;51.18;101693.84;5075168;28;1320;-73
2021/06/03 07:40:29;;;;;;;;;;;;;;;22.27;51.45;101699.00;5068787;28;1588;-73
2021/06/03 07:42:55;;;;;;;;;;;;;;;22.27;51.43;101699.00;5069828;28;1490;-74
2021/06/03 07:45:23;;;;;;;;;;;;;;;22.33;51.65;101700.63;5082308;28;1259;-73
2021/06/03 07:47:49;;;;;;;;;;;;;;;22.28;51.57;101705.31;5074723;28;1574;-73
2021/06/03 07:50:14;;;;;;;;;;;;;;;22.34;52.09;101707.75;5075129;28;819;-73
2021/06/03 07:52:40;;;;;;;;;;;;;;;22.36;51.83;101709.41;5089404;28;1722;-73
2021/06/03 07:55:07;;;;;;;;;;;;;;;22.41;51.59;101709.34;5079762;28;1910;-74
2021/06/03 07:57:32;;;;;;;;;;;;;;;22.33;51.67;101705.28;5079856;28;1337;-73
2021/06/03 07:59:57;;;;;;;;;;;;;;;22.41;51.48;101703.88;5089635;28;822;-74
2021/06/03 08:02:22;;;;;;;;;;;;;;;;;;5093151;28;865;-73
2021/06/03 08:04:48;;;;;;;;;;;;;;;22.47;51.60;101710.97;5090152;28;1412;-71
2021/06/03 08:07:13;;;;;;;;;;;;;;;22.46;52.14;101709.34;5081053;28;1516;-72
2021/06/03 08:09:39;;;;;;;;;;;;;;;22.46;52.67;101720.31;5083638;28;1597;-71
2021/06/03 08:12:04;;;;;;;;;;;;;;;22.48;52.38;101721.69;5091871;28;1424;-73
2021/06/03 08:14:30;;;;;;;;;;;;;;;22.45;52.64;101721.41;5093499;28;849;-73
2021/06/03 08:16:55;;;;;;;;;;;;;;;22.49;52.26;101723.31;5093804;28;1941;-74
2021/06/03 08:19:20;;;;;;;;;;;;;;;22.49;52.45;101717.81;5093422;28;809;-72
2021/06/03 08:21:46;;;;;;;;;;;;;;;22.49;52.50;101719.75;5077099;28;1356;-73
2021/06/03 08:24:11;;;;;;;;;;;;;;;22.54;52.22;101717.78;5074401;28;904;-74
2021/06/03 08:26:37;;;;;;;;;;;;;;;22.52;51.52;101720.00;5072952;28;1234;-73
2021/06/03 08:29:03;;;;;;;;;;;;;;;22.50;51.94;101719.47;5072147;28;940;-74
2021/06/03 08:31:29;;;;;;;;;;;;;;;22.49;51.52;101725.22;5072347;28;965;-73
2021/06/03 08:34:00;;;;;;;;;;;;;;;22.37;51.34;101724.75;5071005;28;1480;-73
2021/06/03 08:36:27;;;;;;;;;;;;;;;;;;5078080;28;1886;-73
2021/06/03 08:38:52;;;;;;;;;;;;;;;22.50;51.33;101732.38;5072376;28;905;-73
2021/06/03 08:41:17;;;;;;;;;;;;;;;22.44;49.63;101725.28;5071950;28;804;-73
2021/06/03 08:43:43;;;;;;;;;;;;;;;22.40;51.83;101729.69;5071408;28;834;-73
2021/06/03 08:46:08;;;;;;;;;;;;;;;22.42;51.34;101730.22;5071983;28;771;-72
2021/06/03 08:48:33;;;;;;;;;;;;;;;22.31;50.96;101719.28;5075433;28;1692;-73
2021/06/03 08:51:01;;;;;;;;;;;;;;;22.42;50.64;101722.00;5082479;28;1664;-76
2021/06/03 08:53:27;;;;;;;;;;;;;;;22.40;51.48;101730.50;5077462;28;1259;-72
2021/06/03 08:58:36;;;;;;;;;;;;;;;22.34;50.99;101732.44;5077962;28;1437;-73
2021/06/03 09:01:02;;;;;;;;;;;;;;;22.42;50.32;101735.72;5080097;28;1115;-74
2021/06/03 09:03:29;;;;;;;;;;;;;;;22.34;50.00;101729.72;5080362;28;1831;-74
2021/06/03 09:05:55;;;;;;;;;;;;;;;22.39;50.47;101745.31;5081109;28;2036;-74
2021/06/03 09:08:22;;;;;;;;;;;;;;;22.47;49.55;101735.69;5077434;28;1681;-74
2021/06/03 09:10:49;;;;;;;;;;;;;;;22.54;50.12;101739.75;5072849;28;1159;-74
2021/06/03 09:13:17;;;;;;;;;;;;;;;22.58;49.92;101736.44;5072701;28;869;-75
2021/06/03 09:15:54;;;;;;;;;;;;;;;22.54;49.88;101741.69;5072919;28;1906;-76
2021/06/03 09:18:46;;;;;;;;;;;;;;;22.49;49.62;101739.78;5078404;28;1747;-74
2021/06/03 09:21:13;;;;;;;;;;;;;;;22.43;50.26;101742.84;5078199;28;1478;-75
2021/06/03 09:23:40;;;;;;;;;;;;;;;22.38;50.07;101740.13;5089802;28;1705;-75
2021/06/03 09:26:06;;;;;;;;;;;;;;;22.36;49.57;101743.16;5112445;27;1580;-74
2021/06/03 09:28:42;;;;;;;;;;;;;;;22.27;49.87;101740.16;5085030;28;857;-74
2021/06/03 09:31:18;;;;;;;;;;;;;;;22.24;49.86;101739.91;5069291;28;829;-75
2021/06/03 09:33:48;;;;;;;;;;;;;;;22.29;49.46;101737.94;5068774;28;846;-75
2021/06/03 09:36:15;;;;;;;;;;;;;;;22.32;49.85;101744.81;5068537;28;1945;-74
2021/06/03 09:38:51;;;;;;;;;;;;;;;22.38;49.33;101742.88;5068688;28;866;-74
2021/06/03 09:41:17;;;;;;;;;;;;;;;22.29;48.97;101742.63;5068464;28;869;-82
2021/06/03 09:43:43;;;;;;;;;;;;;;;22.30;49.26;101747.84;5069558;28;1553;-72
2021/06/03 09:46:08;;;;;;;;;;;;;;;22.37;48.93;101747.53;5089336;28;849;-73
2021/06/03 09:48:34;;;;;;;;;;;;;;;22.30;49.11;101753.31;5090373;28;872;-73
2021/06/03 09:51:18;;;;;;;;;;;;;;;22.22;49.65;101751.13;5079594;28;1342;-75
2021/06/03 09:54:07;;;;;;;;;;;;;;;22.39;49.64;101755.50;5070435;28;1105;-74
2021/06/03 09:56:37;;;;;;;;;;;;;;;22.43;50.21;101754.63;5064815;28;1902;-74
2021/06/03 09:59:04;;;;;;;;;;;;;;;22.50;50.43;101757.09;5070857;28;802;-74
2021/06/03 10:01:46;;;;;;;;;;;;;;;22.39;50.02;101755.50;5070526;28;1309;-74
2021/06/03 10:04:13;;;;;;;;;;;;;;;22.45;50.47;101757.91;5069446;28;1451;-74
2021/06/03 10:06:57;;;;;;;;;;;;;;;22.56;50.18;101763.34;5070264;28;1288;-77
2021/06/03 10:09:42;;;;;;;;;;;;;;;22.62;50.35;101765.81;5072243;28;862;-77
2021/06/03 10:12:09;;;;;;;;;;;;;;;22.59;49.60;101768.28;5065263;28;1082;-77
2021/06/03 10:14:35;;;;;;;;;;;;;;;22.53;50.13;101762.81;5073259;28;869;-77
2021/06/03 10:17:12;;;;;;;;;;;;;;;22.56;50.00;101766.94;5072964;28;1870;-78
2021/06/03 10:19:37;;;;;;;;;;;;;;;22.66;49.65;101766.06;5071955;28;822;-78
2021/06/03 10:22:12;;;;;;;;;;;;;;;22.52;49.49;101761.19;5070674;28;917;-78
2021/06/03 10:24:46;;;;;;;;;;;;;;;22.56;49.60;101760.59;5070149;28;806;-77
2021/06/03 10:27:11;;;;;;;;;;;;;;;22.61;49.48;101752.34;5069135;28;1315;-77
2021/06/03 10:29:37;;;;;;;;;;;;;;;22.58;49.02;101761.13;5070304;28;964;-78
2021/06/03 10:32:02;;;;;;;;;;;;;;;22.56;49.01;101755.94;5070386;28;885;-78
2021/06/03 10:34:27;;;;;;;;;;;;;;;22.54;48.56;101758.97;5070788;28;787;-77
2021/06/03 10:36:53;;;;;;;;;;;;;;;22.45;48.57;101762.59;5069871;28;1878;-77
2021/06/03 10:39:18;;;;;;;;;;;;;;;22.48;48.68;101765.59;5085839;28;1544;-77
2021/06/03 10:41:45;;;;;;;;;;;;;;;22.49;49.34;101766.41;5082206;28;1312;-78
2021/06/03 10:44:10;;;;;;;;;;;;;;;22.53;49.80;101764.75;5077118;28;1041;-78
2021/06/03 10:46:35;;;;;;;;;;;;;;;22.53;49.56;101764.75;5068193;28;810;-78
2021/06/03 10:49:01;;;;;;;;;;;;;;;22.50;49.44;101766.13;5068439;28;794;-77
2021/06/03 10:51:26;;;;;;;;;;;;;;;22.56;49.38;101766.09;5068582;28;1065;-77
2021/06/03 10:53:52;;;;;;;;;;;;;;;22.48;49.73;101773.03;5068056;28;1374;-78
2021/06/03 10:56:21;;;;;;;;;;;;;;;22.46;49.75;101775.22;5068161;28;1967;-77
2021/06/03 10:58:47;;;;;;;;;;;;;;;22.47;49.67;101777.66;5068622;28;814;-78
2021/06/03 11:01:14;;;;;;;;;;;;;;;22.35;49.87;101768.94;5069272;28;1179;-78
2021/06/03 11:03:45;;;;;;;;;;;;;;;22.21;48.63;101787.09;5069797;28;794;-77
2021/06/03 11:06:16;;;;;;;;;;;;;;;22.23;48.94;101774.72;5069693;28;974;-78
2021/06/03 11:08:45;;;;;;;;;;;;;;;22.18;48.26;101779.44;5069420;28;814;-78
2021/06/03 11:11:10;;;;;;;;;;;;;;;22.20;48.88;101780.78;5069905;28;866;-78
2021/06/03 11:13:37;;;;;;;;;;;;;;;22.26;48.37;101779.69;5069698;28;814;-78
2021/06/03 11:16:02;;;;;;;;;;;;;;;22.16;47.77;101779.72;5070188;28;1870;-78
2021/06/03 11:18:46;;;;;;;;;;;;;;;22.17;48.20;101786.81;5069155;28;825;-78
2021/06/03 11:21:30;;;;;;;;;;;;;;;22.13;48.60;101791.22;5068943;28;1328;-78
2021/06/03 11:23:56;;;;;;;;;;;;;;;22.16;47.43;101779.72;5077288;28;1322;-78
2021/06/03 11:26:37;;;;;;;;;;;;;;;22.27;48.19;101786.81;5078522;28;1428;-77
2021/06/03 11:29:14;;;;;;;;;;;;;;;22.28;48.27;101788.47;5063826;28;1303;-77
2021/06/03 11:31:43;;;;;;;;;;;;;;;22.22;47.27;101792.31;5049425;28;864;-78
2021/06/03 11:34:13;;;;;;;;;;;;;;;22.32;48.98;101795.03;5050567;28;1489;-78
2021/06/03 11:36:39;;;;;;;;;;;;;;;22.28;48.08;101798.63;5064720;28;1949;-78
2021/06/03 11:39:23;;;;;;;;;;;;;;;22.37;48.48;101798.88;5067997;28;1484;-77
2021/06/03 11:41:48;;;;;;;;;;;;;;;22.42;48.33;101793.38;5051389;28;1481;-78
2021/06/03 11:44:14;;;;;;;;;;;;;;;22.39;48.57;101794.72;5069234;28;1611;-77
2021/06/03 11:46:49;;;;;;;;;;;;;;;22.37;48.23;101798.88;5068250;28;1182;-78
2021/06/03 11:49:33;;;;;;;;;;;;;;;22.29;48.05;101801.06;5067857;28;1219;-78
2021/06/03 11:52:19;;;;;;;;;;;;;;;22.10;47.52;101800.03;5066584;28;1481;-77
2021/06/03 11:54:53;;;;;;;;;;;;;;;22.03;48.07;101803.03;5069080;28;1243;-77
2021/06/03 11:57:19;;;;;;;;;;;;;;;22.07;48.80;101795.09;5054475;28;1922;-77
2021/06/03 12:00:13;;;;;;;;;;;;;;;22.16;48.18;101793.44;5050293;28;1405;-77
2021/06/03 12:02:39;;;;;;;;;;;;;;;22.26;48.75;101798.09;5038870;28;1520;-78
2021/06/03 12:05:14;;;;;;;;;;;;;;;22.40;48.69;101799.13;5052065;28;1014;-78
2021/06/03 12:07:43;;;;;;;;;;;;;;;22.31;48.14;101793.38;5054102;28;1379;-77
2021/06/03 12:10:10;;;;;;;;;;;;;;;22.23;47.98;101802.16;5049133;28;830;-78
2021/06/03 12:12:36;;;;;;;;;;;;;;;22.31;48.44;101798.88;5048901;28;1510;-78
2021/06/03 12:15:14;;;;;;;;;;;;;;;22.14;48.16;101801.13;5049227;28;807;-77
2021/06/03 12:17:40;;;;;;;;;;;;;;;22.16;48.37;101803.59;5050140;28;1513;-77
2021/06/03 12:20:05;;;;;;;;;;;;;;;22.19;48.81;101797.53;5051844;28;1034;-77
2021/06/03 12:22:31;;;;;;;;;;;;;;;22.20;47.95;101801.94;5068859;28;861;-77
2021/06/03 12:24:58;;;;;;;;;;;;;;;22.09;48.06;101801.97;5068923;28;865;-77
2021/06/03 12:27:28;;;;;;;;;;;;;;;22.03;48.68;101803.03;5074093;28;1299;-78
2021/06/03 12:29:54;;;;;;;;;;;;;;;22.14;48.79;101795.63;5077386;28;877;-77
2021/06/03 12:32:20;;;;;;;;;;;;;;;22.29;48.66;101790.09;5092121;28;913;-77
2021/06/03 12:34:46;;;;;;;;;;;;;;;22.23;49.06;101799.41;5085305;28;1434;-77
2021/06/03 12:37:20;;;;;;;;;;;;;;;22.30;48.50;101800.00;5085531;28;1858;-77
2021/06/03 12:39:46;;;;;;;;;;;;;;;22.27;48.67;101811.50;5078056;28;794;-78
2021/06/03 12:42:11;;;;;;;;;;;;;;;22.28;48.72;101804.13;5060404;28;1208;-77
2021/06/03 12:44:36;;;;;;;;;;;;;;;22.23;48.69;101809.59;5053706;28;1568;-77
2021/06/03 12:47:06;;;;;;;;;;;;;;;22.20;48.94;101821.94;5053216;28;1383;-78
2021/06/03 12:49:32;;;;;;;;;;;;;;;22.23;49.06;101806.84;5051895;28;956;-77
2021/06/03 12:52:02;;;;;;;;;;;;;;;22.11;48.68;101809.88;5059248;28;1232;-77
2021/06/03 12:54:27;;;;;;;;;;;;;;;21.98;48.94;101807.75;5052435;28;1094;-77
2021/06/03 12:56:53;;;;;;;;;;;;;;;21.85;49.44;101803.63;5062802;28;1942;-77
2021/06/03 12:59:20;;;;;;;;;;;;;;;21.83;49.64;101816.81;5068255;28;1382;-77
2021/06/03 13:01:49;;;;;;;;;;;;;;;21.90;49.41;101803.66;5069030;28;1203;-77